Time;durP1;ratioP1;P1;durP2;ratioP2;P2;SDS_P1;SDS_P2;PMS_P1;PMS_P2;Temp;Humidity;BMP_temperature;BMP_pressure;BME280_temperature;BME280_humidity;BME280_pressure;Samples;Min_cycle;Max_cycle;Signal;HPM_P1;HPM_P2
2022/01/15 00:01:52;;;;;;;;;;;23.70;50.90;;;;;;1605971;74;821;-65
2022/01/15 00:03:54;;;;;;;;;;;23.80;51.10;;;;;;1606261;73;728;-67
2022/01/15 00:05:56;;;;;;;;;;;23.80;51.00;;;;;;1601450;73;1175;-67
2022/01/15 00:07:58;;;;;;;;;;;23.70;51.00;;;;;;1605046;73;669;-67
2022/01/15 00:10:00;;;;;;;;;;;23.80;50.90;;;;;;1606248;73;708;-66
2022/01/15 00:12:02;;;;;;;;;;;23.70;50.90;;;;;;1606208;73;667;-67
2022/01/15 00:14:21;;;;;;;;;;;23.70;50.90;;;;;;1606424;73;764;-68
2022/01/15 00:16:29;;;;;;;;;;;23.80;50.90;;;;;;1603180;73;1922;-68
2022/01/15 00:18:29;;;;;;;;;;;23.70;50.90;;;;;;1602996;73;1550;-66
2022/01/15 00:20:23;;;;;;;;;;;23.70;51.00;;;;;;1604178;73;1556;-68
2022/01/15 00:22:25;;;;;;;;;;;23.70;51.00;;;;;;1606382;73;807;-67
2022/01/15 00:24:27;;;;;;;;;;;23.80;51.00;;;;;;1606198;73;729;-67
2022/01/15 00:26:29;;;;;;;;;;;23.70;51.00;;;;;;1606117;73;1184;-67
2022/01/15 00:28:31;;;;;;;;;;;23.70;51.00;;;;;;1605234;73;754;-67
2022/01/15 00:30:33;;;;;;;;;;;23.80;51.10;;;;;;1606195;73;782;-69
2022/01/15 00:32:35;;;;;;;;;;;23.70;51.10;;;;;;1606514;73;704;-66
2022/01/15 00:34:36;;;;;;;;;;;23.70;51.10;;;;;;1604782;73;787;-67
2022/01/15 00:36:38;;;;;;;;;;;23.70;51.00;;;;;;1605788;73;1934;-67
2022/01/15 00:38:40;;;;;;;;;;;23.70;51.10;;;;;;1604339;73;789;-66
2022/01/15 00:40:42;;;;;;;;;;;23.70;51.10;;;;;;1606198;73;790;-67
2022/01/15 00:42:44;;;;;;;;;;;23.70;51.00;;;;;;1606213;73;812;-66
2022/01/15 00:44:49;;;;;;;;;;;23.70;51.00;;;;;;1606268;73;682;-67
2022/01/15 00:46:49;;;;;;;;;;;23.70;51.00;;;;;;1605489;73;1803;-66
2022/01/15 00:48:51;;;;;;;;;;;23.60;50.90;;;;;;1604266;73;779;-66
2022/01/15 00:50:53;;;;;;;;;;;23.70;51.00;;;;;;1606565;73;691;-66
2022/01/15 00:52:55;;;;;;;;;;;23.70;51.00;;;;;;1606368;73;693;-65
2022/01/15 00:54:57;;;;;;;;;;;23.70;51.00;;;;;;1601794;73;782;-67
2022/01/15 00:56:59;;;;;;;;;;;23.70;51.00;;;;;;1605601;73;1948;-67
2022/01/15 00:59:01;;;;;;;;;;;23.70;51.00;;;;;;1606289;73;727;-68
2022/01/15 01:01:03;;;;;;;;;;;23.70;51.00;;;;;;1606477;73;775;-68
2022/01/15 01:03:04;;;;;;;;;;;23.70;51.00;;;;;;1606284;73;700;-66
2022/01/15 01:05:07;;;;;;;;;;;23.70;51.00;;;;;;1605996;73;705;-67
2022/01/15 01:07:08;;;;;;;;;;;23.70;51.10;;;;;;1606340;73;1133;-66
2022/01/15 01:09:10;;;;;;;;;;;23.70;51.00;;;;;;1607252;73;785;-65
2022/01/15 01:11:16;;;;;;;;;;;23.70;51.10;;;;;;1605749;73;791;-65
2022/01/15 01:20:24;;;;;;;;;;;23.70;51.10;;;;;;1621826;73;1659;-67
2022/01/15 01:24:23;;;;;;;;;;;23.70;51.10;;;;;;1617671;73;845;-66
2022/01/15 01:26:31;;;;;;;;;;;23.70;51.20;;;;;;1617710;73;1143;-66
2022/01/15 01:28:36;;;;;;;;;;;23.70;51.20;;;;;;1620715;73;1459;-67
2022/01/15 01:30:46;;;;;;;;;;;23.70;51.20;;;;;;1617891;73;1769;-66
2022/01/15 01:32:50;;;;;;;;;;;23.70;51.10;;;;;;1615869;73;1601;-67
2022/01/15 01:34:45;;;;;;;;;;;23.70;51.10;;;;;;1617918;73;1623;-68
2022/01/15 01:38:57;;;;;;;;;;;23.70;51.10;;;;;;1621544;73;808;-67
2022/01/15 01:40:59;;;;;;;;;;;23.70;51.10;;;;;;1621407;73;1626;-69
2022/01/15 01:43:25;;;;;;;;;;;23.70;51.10;;;;;;1621767;73;1309;-66
2022/01/15 01:45:12;;;;;;;;;;;23.70;51.10;;;;;;1613192;73;1349;-66
2022/01/15 01:47:24;;;;;;;;;;;23.70;51.00;;;;;;1621698;73;699;-66
2022/01/15 01:49:19;;;;;;;;;;;23.60;51.00;;;;;;1618961;73;987;-67
2022/01/15 01:51:25;;;;;;;;;;;23.70;51.10;;;;;;1619966;73;767;-66
2022/01/15 01:53:27;;;;;;;;;;;23.60;51.00;;;;;;1616933;73;1088;-67
2022/01/15 01:55:29;;;;;;;;;;;23.60;51.00;;;;;;1615743;73;1151;-67
2022/01/15 01:57:31;;;;;;;;;;;23.70;51.10;;;;;;1616810;73;1922;-67
2022/01/15 01:59:33;;;;;;;;;;;23.70;51.10;;;;;;1617738;73;674;-68
2022/01/15 02:01:35;;;;;;;;;;;23.70;51.10;;;;;;1621672;73;701;-68
2022/01/15 02:03:37;;;;;;;;;;;23.70;51.10;;;;;;1621048;73;720;-67
2022/01/15 02:05:42;;;;;;;;;;;23.70;51.10;;;;;;1618373;73;1236;-67
2022/01/15 02:07:44;;;;;;;;;;;23.70;51.10;;;;;;1616695;73;701;-67
2022/01/15 02:09:46;;;;;;;;;;;23.70;51.10;;;;;;1619492;73;702;-68
2022/01/15 02:11:48;;;;;;;;;;;23.60;51.00;;;;;;1617211;73;733;-67
2022/01/15 02:13:50;;;;;;;;;;;23.70;51.10;;;;;;1613032;73;761;-68
2022/01/15 02:15:52;;;;;;;;;;;23.70;51.20;;;;;;1616524;73;1255;-67
2022/01/15 02:17:54;;;;;;;;;;;23.60;51.00;;;;;;1607422;73;1930;-68
2022/01/15 02:24:26;;;;;;;;;;;23.70;51.10;;;;;;1604228;73;1664;-66
2022/01/15 02:26:28;;;;;;;;;;;23.60;51.00;;;;;;1618158;73;1194;-66
2022/01/15 02:28:34;;;;;;;;;;;23.60;51.00;;;;;;1619940;73;705;-67
2022/01/15 02:30:36;;;;;;;;;;;23.60;51.00;;;;;;1612400;73;989;-67
2022/01/15 02:32:38;;;;;;;;;;;23.70;51.10;;;;;;1633375;73;689;-69
2022/01/15 02:34:40;;;;;;;;;;;23.70;51.10;;;;;;1615243;73;753;-68
2022/01/15 02:36:41;;;;;;;;;;;23.60;51.00;;;;;;1618147;73;1937;-66
2022/01/15 02:38:43;;;;;;;;;;;23.60;51.00;;;;;;1624071;73;691;-67
2022/01/15 02:40:45;;;;;;;;;;;23.60;51.00;;;;;;1613525;73;609;-67
2022/01/15 02:42:47;;;;;;;;;;;23.70;51.20;;;;;;1618474;73;705;-68
2022/01/15 02:44:57;;;;;;;;;;;23.60;51.00;;;;;;1616576;73;735;-69
2022/01/15 02:48:57;;;;;;;;;;;23.70;51.20;;;;;;1616611;73;805;-67
2022/01/15 02:50:59;;;;;;;;;;;23.60;51.00;;;;;;1615495;73;770;-67
2022/01/15 02:53:01;;;;;;;;;;;23.60;51.10;;;;;;1611905;73;724;-66
2022/01/15 02:55:03;;;;;;;;;;;23.60;51.10;;;;;;1621210;73;806;-67
2022/01/15 02:57:06;;;;;;;;;;;23.60;51.00;;;;;;1619837;73;1933;-67
2022/01/15 03:01:34;;;;;;;;;;;23.60;51.10;;;;;;1559761;76;746;-74
2022/01/15 03:03:35;;;;;;;;;;;23.60;51.00;;;;;;1563180;75;703;-73
2022/01/15 03:05:37;;;;;;;;;;;23.60;51.00;;;;;;1567417;75;777;-73
2022/01/15 03:07:39;;;;;;;;;;;23.60;50.90;;;;;;1552998;75;800;-73
2022/01/15 03:09:41;;;;;;;;;;;23.60;51.00;;;;;;1554309;75;1193;-73
2022/01/15 03:11:43;;;;;;;;;;;23.60;51.00;;;;;;1568135;75;769;-74
2022/01/15 03:13:45;;;;;;;;;;;23.60;50.90;;;;;;1569282;75;781;-78
2022/01/15 03:15:47;;;;;;;;;;;23.60;50.90;;;;;;1577229;75;765;-73
2022/01/15 03:17:49;;;;;;;;;;;23.60;50.90;;;;;;1563457;75;2000;-73
2022/01/15 03:19:51;;;;;;;;;;;23.60;51.00;;;;;;1576643;75;1136;-73
2022/01/15 03:21:53;;;;;;;;;;;23.60;50.90;;;;;;1570597;75;852;-74
2022/01/15 03:23:54;;;;;;;;;;;23.60;51.00;;;;;;1571002;75;808;-76
2022/01/15 03:25:56;;;;;;;;;;;23.60;51.00;;;;;;1572839;75;739;-75
2022/01/15 03:27:58;;;;;;;;;;;23.60;51.00;;;;;;1572101;75;732;-74
2022/01/15 03:30:00;;;;;;;;;;;23.60;51.00;;;;;;1574217;75;1133;-75
2022/01/15 03:32:02;;;;;;;;;;;23.60;51.00;;;;;;1571745;75;819;-77
2022/01/15 03:34:04;;;;;;;;;;;23.60;51.10;;;;;;1574245;75;782;-78
2022/01/15 03:36:06;;;;;;;;;;;23.60;51.10;;;;;;1579491;75;732;-75
2022/01/15 03:38:08;;;;;;;;;;;23.60;51.10;;;;;;1572883;75;1945;-75
2022/01/15 03:40:10;;;;;;;;;;;23.60;51.10;;;;;;1565868;75;1093;-76
2022/01/15 03:42:12;;;;;;;;;;;23.60;51.10;;;;;;1574351;75;813;-76
2022/01/15 03:44:14;;;;;;;;;;;23.70;51.20;;;;;;1572738;75;723;-73
2022/01/15 03:46:16;;;;;;;;;;;23.70;51.20;;;;;;1575022;75;764;-73
2022/01/15 03:48:18;;;;;;;;;;;23.70;51.20;;;;;;1575618;75;756;-73
2022/01/15 03:50:20;;;;;;;;;;;23.70;51.20;;;;;;1571768;75;1141;-73
2022/01/15 03:52:22;;;;;;;;;;;23.60;51.10;;;;;;1571881;75;673;-73
2022/01/15 03:54:23;;;;;;;;;;;23.70;51.10;;;;;;1561653;75;724;-73
2022/01/15 03:56:25;;;;;;;;;;;23.70;51.20;;;;;;1574599;75;792;-73
2022/01/15 03:58:27;;;;;;;;;;;23.70;51.20;;;;;;1576706;75;1939;-73
2022/01/15 04:00:29;;;;;;;;;;;23.70;51.20;;;;;;1570184;75;1172;-72
2022/01/15 04:02:31;;;;;;;;;;;23.70;51.20;;;;;;1579029;75;743;-73
2022/01/15 04:04:33;;;;;;;;;;;23.70;51.20;;;;;;1562612;75;781;-73
2022/01/15 04:06:35;;;;;;;;;;;23.70;51.20;;;;;;1578584;75;698;-74
2022/01/15 04:08:37;;;;;;;;;;;23.70;51.20;;;;;;1574409;75;777;-74
2022/01/15 04:10:38;;;;;;;;;;;23.70;51.10;;;;;;1565604;75;1099;-75
2022/01/15 04:12:40;;;;;;;;;;;23.80;51.10;;;;;;1577826;75;706;-73
2022/01/15 04:14:42;;;;;;;;;;;23.80;51.10;;;;;;1570764;75;805;-77
2022/01/15 04:16:44;;;;;;;;;;;23.80;51.10;;;;;;1581862;74;770;-76
2022/01/15 04:18:46;;;;;;;;;;;23.70;51.00;;;;;;1565767;75;1947;-75
2022/01/15 04:20:48;;;;;;;;;;;23.80;51.00;;;;;;1573468;75;1110;-75
2022/01/15 04:22:51;;;;;;;;;;;23.90;51.00;;;;;;1573946;75;847;-75
2022/01/15 04:24:53;;;;;;;;;;;23.80;50.90;;;;;;1576400;75;798;-75
2022/01/15 04:26:54;;;;;;;;;;;23.90;51.00;;;;;;1568720;75;763;-75
2022/01/15 04:29:02;;;;;;;;;;;23.90;50.90;;;;;;1579621;75;724;-76
2022/01/15 04:31:07;;;;;;;;;;;23.80;50.70;;;;;;1573780;75;1601;-75
2022/01/15 04:33:09;;;;;;;;;;;23.90;50.90;;;;;;1558731;75;842;-76
2022/01/15 04:35:11;;;;;;;;;;;23.90;50.80;;;;;;1568744;75;690;-73
2022/01/15 04:37:18;;;;;;;;;;;23.90;50.80;;;;;;1575152;74;1910;-74
2022/01/15 04:39:17;;;;;;;;;;;23.90;50.80;;;;;;1570230;75;1575;-75
2022/01/15 04:41:19;;;;;;;;;;;23.90;50.80;;;;;;1568302;75;896;-73
2022/01/15 04:43:21;;;;;;;;;;;23.90;50.70;;;;;;1578298;75;741;-75
2022/01/15 04:45:22;;;;;;;;;;;23.90;50.70;;;;;;1578730;75;739;-76
2022/01/15 04:47:25;;;;;;;;;;;23.90;50.70;;;;;;1569714;75;808;-74
2022/01/15 04:49:27;;;;;;;;;;;23.90;50.80;;;;;;1578443;75;1097;-77
2022/01/15 04:51:28;;;;;;;;;;;23.90;50.70;;;;;;1571815;75;720;-71
2022/01/15 04:53:30;;;;;;;;;;;23.90;50.70;;;;;;1577452;75;739;-74
2022/01/15 04:55:33;;;;;;;;;;;23.90;50.70;;;;;;1554346;75;713;-74
2022/01/15 04:57:35;;;;;;;;;;;23.90;50.70;;;;;;1562211;75;1919;-73
2022/01/15 04:59:36;;;;;;;;;;;23.90;50.60;;;;;;1575434;75;1196;-74
2022/01/15 05:01:38;;;;;;;;;;;23.90;50.60;;;;;;1573474;75;753;-74
2022/01/15 05:03:40;;;;;;;;;;;23.90;50.60;;;;;;1565714;75;774;-72
2022/01/15 05:05:42;;;;;;;;;;;23.90;50.60;;;;;;1574557;75;745;-75
2022/01/15 05:07:44;;;;;;;;;;;23.90;50.60;;;;;;1573151;75;764;-75
2022/01/15 05:09:46;;;;;;;;;;;23.90;50.50;;;;;;1566435;75;1115;-73
2022/01/15 05:11:59;;;;;;;;;;;23.90;50.60;;;;;;1567341;75;809;-75
2022/01/15 05:13:52;;;;;;;;;;;23.90;50.60;;;;;;1574514;75;1470;-72
2022/01/15 05:15:53;;;;;;;;;;;23.90;50.50;;;;;;1561461;74;842;-69
2022/01/15 05:17:55;;;;;;;;;;;23.90;50.60;;;;;;1580155;74;1938;-74
2022/01/15 05:19:57;;;;;;;;;;;23.90;50.50;;;;;;1575519;75;1066;-74
2022/01/15 05:22:00;;;;;;;;;;;23.90;50.60;;;;;;1569862;75;665;-74
2022/01/15 05:24:02;;;;;;;;;;;23.90;50.60;;;;;;1578741;75;654;-73
2022/01/15 05:26:04;;;;;;;;;;;23.90;50.60;;;;;;1572975;75;810;-73
2022/01/15 05:28:07;;;;;;;;;;;23.90;50.60;;;;;;1565535;75;775;-73
2022/01/15 05:30:10;;;;;;;;;;;23.90;50.60;;;;;;1568746;75;1148;-76
2022/01/15 05:32:12;;;;;;;;;;;23.80;50.50;;;;;;1577718;75;973;-75
2022/01/15 05:34:13;;;;;;;;;;;23.90;50.60;;;;;;1570386;75;797;-74
2022/01/15 05:36:15;;;;;;;;;;;23.90;50.60;;;;;;1568668;75;749;-73
2022/01/15 05:38:17;;;;;;;;;;;23.90;50.60;;;;;;1565659;75;1927;-72
2022/01/15 05:40:19;;;;;;;;;;;23.90;50.60;;;;;;1570291;75;1164;-73
2022/01/15 05:42:21;;;;;;;;;;;23.90;50.50;;;;;;1572170;75;736;-71
2022/01/15 05:44:23;;;;;;;;;;;23.90;50.50;;;;;;1575186;75;782;-71
2022/01/15 05:46:25;;;;;;;;;;;23.90;50.50;;;;;;1564157;75;785;-72
2022/01/15 05:48:26;;;;;;;;;;;23.90;50.50;;;;;;1571454;75;781;-73
2022/01/15 05:50:28;;;;;;;;;;;23.90;50.50;;;;;;1565718;75;1135;-73
2022/01/15 05:52:30;;;;;;;;;;;23.90;50.50;;;;;;1570248;75;748;-73
2022/01/15 05:54:32;;;;;;;;;;;23.90;50.50;;;;;;1569373;75;683;-73
2022/01/15 05:56:34;;;;;;;;;;;23.90;50.50;;;;;;1573570;75;704;-73
2022/01/15 05:58:36;;;;;;;;;;;23.90;50.50;;;;;;1573274;75;1997;-74
2022/01/15 06:00:38;;;;;;;;;;;23.90;50.50;;;;;;1570460;75;1184;-74
2022/01/15 06:02:40;;;;;;;;;;;23.90;50.50;;;;;;1578290;75;776;-76
2022/01/15 06:04:41;;;;;;;;;;;23.90;50.50;;;;;;1572792;75;703;-78
2022/01/15 06:06:43;;;;;;;;;;;23.90;50.50;;;;;;1578171;75;740;-79
2022/01/15 06:08:45;;;;;;;;;;;23.90;50.50;;;;;;1576667;75;735;-76
2022/01/15 06:10:47;;;;;;;;;;;23.90;50.50;;;;;;1571518;75;1141;-74
2022/01/15 06:12:49;;;;;;;;;;;23.90;50.60;;;;;;1560561;75;719;-75
2022/01/15 06:14:51;;;;;;;;;;;24.00;50.50;;;;;;1563943;74;947;-74
2022/01/15 06:16:53;;;;;;;;;;;23.90;50.60;;;;;;1571831;75;666;-74
2022/01/15 06:18:55;;;;;;;;;;;24.00;50.50;;;;;;1567208;75;1942;-74
2022/01/15 06:20:56;;;;;;;;;;;24.00;50.50;;;;;;1570606;75;1127;-78
2022/01/15 06:22:58;;;;;;;;;;;24.00;50.40;;;;;;1579094;74;781;-75
2022/01/15 06:25:02;;;;;;;;;;;23.90;50.30;;;;;;1577689;75;722;-74
2022/01/15 06:27:04;;;;;;;;;;;23.90;50.40;;;;;;1567812;75;709;-74
2022/01/15 06:29:06;;;;;;;;;;;23.90;50.40;;;;;;1577399;75;769;-76
2022/01/15 06:31:08;;;;;;;;;;;23.90;50.40;;;;;;1578986;75;1078;-76
2022/01/15 06:33:10;;;;;;;;;;;23.90;50.40;;;;;;1568994;75;770;-77
2022/01/15 06:35:13;;;;;;;;;;;23.90;50.50;;;;;;1572692;75;723;-75
2022/01/15 06:37:14;;;;;;;;;;;23.90;50.40;;;;;;1565108;75;748;-78
2022/01/15 06:39:16;;;;;;;;;;;23.90;50.40;;;;;;1571331;75;1935;-81
2022/01/15 06:41:18;;;;;;;;;;;23.90;50.50;;;;;;1574254;75;686;-75
2022/01/15 06:43:20;;;;;;;;;;;23.90;50.40;;;;;;1571857;75;654;-76
2022/01/15 06:45:22;;;;;;;;;;;23.90;50.40;;;;;;1574766;75;723;-75
2022/01/15 06:47:25;;;;;;;;;;;24.00;50.40;;;;;;1571781;75;794;-72
2022/01/15 06:49:26;;;;;;;;;;;23.90;50.40;;;;;;1571593;75;1156;-76
2022/01/15 06:51:28;;;;;;;;;;;23.90;50.50;;;;;;1567534;75;793;-76
2022/01/15 06:53:30;;;;;;;;;;;23.90;50.50;;;;;;1571845;75;731;-74
2022/01/15 06:55:32;;;;;;;;;;;24.00;50.50;;;;;;1577493;75;677;-71
2022/01/15 06:57:34;;;;;;;;;;;24.00;50.50;;;;;;1576674;75;691;-73
2022/01/15 06:59:36;;;;;;;;;;;24.00;50.60;;;;;;1569946;75;1930;-75
2022/01/15 07:01:38;;;;;;;;;;;24.00;50.50;;;;;;1578597;75;729;-75
2022/01/15 07:03:40;;;;;;;;;;;23.90;50.30;;;;;;1578852;75;815;-77
2022/01/15 07:05:41;;;;;;;;;;;23.90;50.30;;;;;;1570296;75;685;-76
2022/01/15 07:07:46;;;;;;;;;;;24.00;50.30;;;;;;1574116;75;818;-78
2022/01/15 07:09:48;;;;;;;;;;;24.00;50.20;;;;;;1564417;75;1216;-72
2022/01/15 07:11:50;;;;;;;;;;;23.90;50.20;;;;;;1575795;75;742;-73
2022/01/15 07:13:52;;;;;;;;;;;23.90;50.20;;;;;;1571278;75;806;-77
2022/01/15 07:15:54;;;;;;;;;;;23.90;50.30;;;;;;1578052;74;697;-75
2022/01/15 07:17:59;;;;;;;;;;;23.80;50.20;;;;;;1576489;75;749;-75
2022/01/15 07:19:59;;;;;;;;;;;23.90;50.40;;;;;;1575816;74;1927;-75
2022/01/15 07:22:01;;;;;;;;;;;23.90;50.40;;;;;;1577727;74;710;-75
2022/01/15 07:24:03;;;;;;;;;;;23.90;50.40;;;;;;1576160;74;775;-74
2022/01/15 07:26:05;;;;;;;;;;;23.90;50.40;;;;;;1575374;74;957;-76
2022/01/15 07:28:07;;;;;;;;;;;23.90;50.30;;;;;;1573493;74;761;-76
2022/01/15 07:30:09;;;;;;;;;;;23.90;50.30;;;;;;1574401;74;1136;-76
2022/01/15 07:32:11;;;;;;;;;;;24.00;50.30;;;;;;1573996;74;797;-79
2022/01/15 07:34:13;;;;;;;;;;;24.00;50.30;;;;;;1578281;74;787;-75
2022/01/15 07:36:15;;;;;;;;;;;24.00;50.30;;;;;;1575490;74;798;-76
2022/01/15 07:38:17;;;;;;;;;;;24.00;50.20;;;;;;1578484;74;1934;-75
2022/01/15 07:40:19;;;;;;;;;;;24.00;50.30;;;;;;1575365;74;1164;-75
2022/01/15 07:42:21;;;;;;;;;;;24.00;50.20;;;;;;1576963;74;725;-75
2022/01/15 07:44:23;;;;;;;;;;;24.00;50.30;;;;;;1578473;75;780;-76
2022/01/15 07:46:25;;;;;;;;;;;24.00;50.30;;;;;;1577842;75;729;-73
2022/01/15 07:48:27;;;;;;;;;;;24.00;50.30;;;;;;1575391;75;737;-74
2022/01/15 07:50:29;;;;;;;;;;;24.00;50.40;;;;;;1578089;75;1118;-75
2022/01/15 07:52:30;;;;;;;;;;;24.00;50.30;;;;;;1579060;75;723;-77
2022/01/15 07:54:32;;;;;;;;;;;24.00;50.40;;;;;;1572485;75;674;-78
2022/01/15 07:56:34;;;;;;;;;;;24.00;50.40;;;;;;1574052;75;739;-79
2022/01/15 07:58:36;;;;;;;;;;;24.00;50.40;;;;;;1575345;75;1937;-74
2022/01/15 08:00:38;;;;;;;;;;;24.10;50.50;;;;;;1574451;75;1169;-75
2022/01/15 08:02:40;;;;;;;;;;;24.10;50.40;;;;;;1577317;75;755;-73
2022/01/15 08:04:42;;;;;;;;;;;24.00;50.30;;;;;;1571293;75;692;-74
2022/01/15 08:06:44;;;;;;;;;;;24.10;50.50;;;;;;1577166;75;780;-74
2022/01/15 08:08:46;;;;;;;;;;;24.00;50.30;;;;;;1567088;75;789;-74
2022/01/15 08:10:47;;;;;;;;;;;24.00;50.30;;;;;;1573594;75;1200;-74
2022/01/15 08:12:49;;;;;;;;;;;24.00;50.30;;;;;;1570850;75;743;-78
2022/01/15 08:14:51;;;;;;;;;;;24.00;50.30;;;;;;1568771;75;754;-77
2022/01/15 08:16:53;;;;;;;;;;;24.00;50.30;;;;;;1572910;74;733;-75
2022/01/15 08:18:55;;;;;;;;;;;24.00;50.30;;;;;;1577540;74;1943;-75
2022/01/15 08:20:57;;;;;;;;;;;24.00;50.20;;;;;;1572615;74;1126;-75
2022/01/15 08:22:59;;;;;;;;;;;24.00;50.20;;;;;;1576912;75;784;-75
2022/01/15 08:25:01;;;;;;;;;;;24.00;50.30;;;;;;1568851;75;823;-75
2022/01/15 08:27:03;;;;;;;;;;;24.00;50.20;;;;;;1568206;74;714;-74
2022/01/15 08:29:05;;;;;;;;;;;23.90;50.20;;;;;;1578145;75;671;-75
2022/01/15 08:31:07;;;;;;;;;;;24.00;50.20;;;;;;1573614;75;1106;-77
2022/01/15 08:33:08;;;;;;;;;;;23.90;50.20;;;;;;1568725;75;706;-78
2022/01/15 08:35:10;;;;;;;;;;;24.00;50.20;;;;;;1568467;75;720;-75
2022/01/15 08:37:12;;;;;;;;;;;23.90;50.20;;;;;;1560899;75;791;-75
2022/01/15 08:39:14;;;;;;;;;;;23.90;50.20;;;;;;1569579;75;1936;-75
2022/01/15 08:41:16;;;;;;;;;;;23.90;50.20;;;;;;1559330;75;1130;-75
2022/01/15 08:43:18;;;;;;;;;;;23.80;50.20;;;;;;1566529;75;691;-75
2022/01/15 08:45:20;;;;;;;;;;;23.90;50.30;;;;;;1554632;75;724;-75
2022/01/15 08:47:22;;;;;;;;;;;23.90;50.20;;;;;;1566866;74;718;-77
2022/01/15 08:49:24;;;;;;;;;;;23.80;50.20;;;;;;1572703;74;1163;-78
2022/01/15 08:51:25;;;;;;;;;;;23.80;50.10;;;;;;1568238;74;729;-80
2022/01/15 08:53:27;;;;;;;;;;;23.90;50.20;;;;;;1575465;75;674;-75
2022/01/15 08:55:29;;;;;;;;;;;23.80;50.20;;;;;;1574354;74;574;-75
2022/01/15 08:57:31;;;;;;;;;;;23.90;50.20;;;;;;1569195;74;606;-76
2022/01/15 08:59:37;;;;;;;;;;;23.90;50.20;;;;;;1569748;74;1936;-74
2022/01/15 09:01:39;;;;;;;;;;;23.70;50.10;;;;;;1575740;74;987;-81
2022/01/15 09:03:41;;;;;;;;;;;23.80;50.10;;;;;;1568435;74;813;-75
2022/01/15 09:05:43;;;;;;;;;;;23.80;50.10;;;;;;1572432;74;772;-78
2022/01/15 09:07:45;;;;;;;;;;;23.70;50.20;;;;;;1566333;74;726;-76
2022/01/15 09:09:47;;;;;;;;;;;23.80;50.10;;;;;;1567375;74;1197;-75
2022/01/15 09:11:49;;;;;;;;;;;23.80;50.10;;;;;;1573814;74;771;-79
2022/01/15 09:13:51;;;;;;;;;;;23.70;50.10;;;;;;1572315;74;810;-80
2022/01/15 09:15:53;;;;;;;;;;;23.70;50.10;;;;;;1571034;74;734;-75
2022/01/15 09:17:55;;;;;;;;;;;23.80;50.10;;;;;;1555942;75;731;-75
2022/01/15 09:19:56;;;;;;;;;;;23.70;50.10;;;;;;1561913;75;1928;-75
2022/01/15 09:21:58;;;;;;;;;;;23.80;50.10;;;;;;1565955;75;699;-75
2022/01/15 09:24:00;;;;;;;;;;;23.70;50.10;;;;;;1569189;75;735;-75
2022/01/15 09:26:02;;;;;;;;;;;23.80;50.10;;;;;;1566484;75;727;-75
2022/01/15 09:30:24;;;;;;;;;;;23.70;50.10;;;;;;1577089;74;1894;-77
2022/01/15 09:32:26;;;;;;;;;;;23.70;50.10;;;;;;1568133;74;727;-79
2022/01/15 09:34:28;;;;;;;;;;;23.80;50.10;;;;;;1575330;74;745;-78
2022/01/15 09:36:30;;;;;;;;;;;23.80;50.10;;;;;;1572663;74;734;-77
2022/01/15 09:38:32;;;;;;;;;;;23.80;50.10;;;;;;1570660;74;724;-71
2022/01/15 09:40:33;;;;;;;;;;;23.70;50.00;;;;;;1575984;74;1937;-77
2022/01/15 09:42:35;;;;;;;;;;;23.80;50.10;;;;;;1564381;74;708;-76
2022/01/15 09:44:37;;;;;;;;;;;23.70;50.10;;;;;;1573890;74;731;-74
2022/01/15 09:46:39;;;;;;;;;;;23.80;50.10;;;;;;1593791;73;679;-77
2022/01/15 09:48:41;;;;;;;;;;;23.70;50.10;;;;;;1560762;75;758;-80
2022/01/15 09:50:44;;;;;;;;;;;23.70;50.10;;;;;;1534672;76;1126;-76
2022/01/15 09:52:46;;;;;;;;;;;23.80;50.10;;;;;;1555484;75;757;-76
2022/01/15 09:54:47;;;;;;;;;;;23.80;50.10;;;;;;1560256;75;647;-78
2022/01/15 09:56:49;;;;;;;;;;;23.80;50.10;;;;;;1568387;74;778;-75
2022/01/15 09:58:53;;;;;;;;;;;23.70;50.10;;;;;;1573509;75;771;-76
2022/01/15 10:00:55;;;;;;;;;;;23.70;50.00;;;;;;1574952;75;1936;-76
2022/01/15 10:02:57;;;;;;;;;;;23.70;50.10;;;;;;1562522;75;712;-75
2022/01/15 10:04:58;;;;;;;;;;;23.80;50.00;;;;;;1568399;75;783;-75
2022/01/15 10:07:07;;;;;;;;;;;23.80;50.00;;;;;;1580310;75;747;-76
2022/01/15 10:09:09;;;;;;;;;;;23.80;50.00;;;;;;1575572;75;774;-76
2022/01/15 10:11:11;;;;;;;;;;;23.80;50.10;;;;;;1568169;75;1167;-76
2022/01/15 10:13:20;;;;;;;;;;;23.80;50.00;;;;;;1576569;75;682;-76
2022/01/15 10:15:22;;;;;;;;;;;23.80;50.00;;;;;;1573834;75;823;-75
2022/01/15 10:17:27;;;;;;;;;;;23.80;50.00;;;;;;1556619;75;786;-76
2022/01/15 10:19:30;;;;;;;;;;;23.80;50.00;;;;;;1568606;75;1974;-76
2022/01/15 10:21:32;;;;;;;;;;;23.70;50.00;;;;;;1573733;75;742;-77
2022/01/15 10:23:34;;;;;;;;;;;23.80;50.00;;;;;;1564484;75;804;-76
2022/01/15 10:25:37;;;;;;;;;;;23.80;50.00;;;;;;1556834;76;1184;-76
2022/01/15 10:27:39;;;;;;;;;;;23.90;50.00;;;;;;1565747;75;656;-75
2022/01/15 10:29:41;;;;;;;;;;;23.90;50.00;;;;;;1579803;74;1191;-75
2022/01/15 10:31:44;;;;;;;;;;;23.80;49.90;;;;;;1594560;73;731;-76
2022/01/15 10:33:46;;;;;;;;;;;23.80;49.90;;;;;;1554814;75;794;-79
2022/01/15 10:35:48;;;;;;;;;;;23.90;50.00;;;;;;1589625;73;673;-73
2022/01/15 10:37:51;;;;;;;;;;;23.80;49.90;;;;;;1589330;73;734;-77
2022/01/15 10:40:11;;;;;;;;;;;23.90;49.90;;;;;;1588324;73;1954;-75
2022/01/15 10:42:14;;;;;;;;;;;23.90;49.90;;;;;;1584873;73;699;-74
2022/01/15 10:44:29;;;;;;;;;;;23.90;49.90;;;;;;1585142;73;689;-74
2022/01/15 10:46:35;;;;;;;;;;;23.90;49.90;;;;;;1593632;73;742;-76
2022/01/15 10:48:38;;;;;;;;;;;23.90;49.90;;;;;;1589116;73;1519;-75
2022/01/15 10:50:40;;;;;;;;;;;23.90;49.90;;;;;;1592250;73;1131;-74
2022/01/15 10:52:42;;;;;;;;;;;23.90;49.90;;;;;;1589518;73;731;-75
2022/01/15 10:55:03;;;;;;;;;;;23.90;49.80;;;;;;1562550;75;737;-75
2022/01/15 10:57:06;;;;;;;;;;;23.90;49.80;;;;;;1572320;75;1159;-78
2022/01/15 10:59:10;;;;;;;;;;;23.90;49.80;;;;;;1562184;75;774;-75
2022/01/15 11:01:12;;;;;;;;;;;23.90;49.80;;;;;;1574718;75;1931;-75
2022/01/15 11:03:16;;;;;;;;;;;23.90;49.90;;;;;;1571796;74;765;-75
2022/01/15 11:05:20;;;;;;;;;;;23.90;49.90;;;;;;1598437;73;772;-75
2022/01/15 11:07:21;;;;;;;;;;;23.90;49.80;;;;;;1572101;75;1798;-76
2022/01/15 11:09:34;;;;;;;;;;;23.90;49.80;;;;;;1571478;75;1153;-77
2022/01/15 11:11:36;;;;;;;;;;;23.90;49.80;;;;;;1570908;74;702;-74
2022/01/15 11:13:41;;;;;;;;;;;23.90;49.80;;;;;;1541225;75;1138;-78
2022/01/15 11:15:44;;;;;;;;;;;23.80;49.70;;;;;;1591304;73;746;-80
2022/01/15 11:17:46;;;;;;;;;;;23.90;49.70;;;;;;1588069;74;729;-77
2022/01/15 11:19:48;;;;;;;;;;;23.80;49.60;;;;;;1561339;75;1948;-73
2022/01/15 11:21:50;;;;;;;;;;;23.90;49.70;;;;;;1591617;73;1156;-73
2022/01/15 11:23:51;;;;;;;;;;;23.80;49.70;;;;;;1594543;73;740;-73
2022/01/15 11:25:54;;;;;;;;;;;23.80;49.50;;;;;;1596536;73;727;-73
2022/01/15 11:27:57;;;;;;;;;;;23.80;49.60;;;;;;1596902;73;774;-80
2022/01/15 11:29:59;;;;;;;;;;;23.80;49.70;;;;;;1588966;73;1160;-73
2022/01/15 11:32:01;;;;;;;;;;;23.80;49.60;;;;;;1594273;73;803;-74
2022/01/15 11:34:04;;;;;;;;;;;23.80;49.60;;;;;;1592510;73;774;-75
2022/01/15 11:36:06;;;;;;;;;;;23.90;49.70;;;;;;1590509;73;769;-73
2022/01/15 11:38:08;;;;;;;;;;;23.80;49.60;;;;;;1592207;73;751;-69
2022/01/15 11:40:28;;;;;;;;;;;23.80;49.50;;;;;;1596382;73;2151;-72
2022/01/15 11:42:35;;;;;;;;;;;23.80;49.50;;;;;;1590231;73;724;-73
2022/01/15 11:44:38;;;;;;;;;;;23.80;49.40;;;;;;1578429;73;1149;-73
2022/01/15 11:46:49;;;;;;;;;;;23.80;49.50;;;;;;1561495;74;702;-76
2022/01/15 11:48:51;;;;;;;;;;;23.80;49.40;;;;;;1560602;75;719;-73
2022/01/15 11:51:07;;;;;;;;;;;23.70;49.40;;;;;;1580489;73;1095;-73
2022/01/15 11:53:09;;;;;;;;;;;23.80;49.40;;;;;;1534477;75;1129;-73
2022/01/15 11:55:11;;;;;;;;;;;23.80;49.40;;;;;;1560481;76;698;-73
2022/01/15 11:57:22;;;;;;;;;;;23.70;49.30;;;;;;1574186;75;761;-73
2022/01/15 11:59:26;;;;;;;;;;;23.70;49.30;;;;;;1563263;75;1133;-76
2022/01/15 12:01:38;;;;;;;;;;;23.80;49.30;;;;;;1567913;75;1961;-73
2022/01/15 12:03:39;;;;;;;;;;;23.90;49.40;;;;;;1577446;75;800;-75
2022/01/15 12:05:42;;;;;;;;;;;23.70;49.30;;;;;;1560755;75;800;-73
2022/01/15 12:07:44;;;;;;;;;;;23.70;49.30;;;;;;1566664;75;703;-74
2022/01/15 12:09:47;;;;;;;;;;;23.70;49.40;;;;;;1589539;74;1204;-72
2022/01/15 12:11:49;;;;;;;;;;;23.70;49.40;;;;;;1585506;74;706;-69
2022/01/15 12:13:51;;;;;;;;;;;23.70;49.50;;;;;;1566723;74;782;-73
2022/01/15 12:15:54;;;;;;;;;;;23.70;49.70;;;;;;1562589;74;767;-73
2022/01/15 12:18:00;;;;;;;;;;;23.70;49.70;;;;;;1552160;75;1135;-76
2022/01/15 12:20:03;;;;;;;;;;;23.70;49.70;;;;;;1569231;74;1914;-70
2022/01/15 12:22:06;;;;;;;;;;;23.70;49.90;;;;;;1577924;74;1807;-73
2022/01/15 12:24:10;;;;;;;;;;;23.70;50.00;;;;;;1576093;73;719;-74
2022/01/15 12:26:12;;;;;;;;;;;23.70;50.00;;;;;;1568898;73;952;-82
2022/01/15 12:28:15;;;;;;;;;;;23.80;50.00;;;;;;1564312;76;761;-75
2022/01/15 12:30:17;;;;;;;;;;;23.70;49.80;;;;;;1572331;73;1103;-73
2022/01/15 12:32:29;;;;;;;;;;;23.70;49.80;;;;;;1579510;75;899;-73
2022/01/15 12:34:31;;;;;;;;;;;23.80;49.80;;;;;;1565509;75;728;-77